createdAt,value
2022-09-15T00:02:25.524Z,80.28
2022-09-15T00:04:52.303Z,81.69
2022-09-15T00:07:19.606Z,81.43
2022-09-15T00:09:46.275Z,81.35
2022-09-15T00:12:13.073Z,81.22
2022-09-15T00:14:39.933Z,82.60
2022-09-15T00:17:06.742Z,82.06
2022-09-15T00:19:33.463Z,82.76
2022-09-15T00:22:00.225Z,83.67
2022-09-15T00:24:27.198Z,82.12
2022-09-15T00:26:54.235Z,82.00
2022-09-15T00:29:21.109Z,82.50
2022-09-15T00:31:47.910Z,83.36
2022-09-15T00:34:14.754Z,83.66
2022-09-15T00:36:41.659Z,84.23
2022-09-15T00:39:08.505Z,83.20
2022-09-15T00:41:35.361Z,83.41
2022-09-15T00:44:26.764Z,83.43
2022-09-15T00:47:15.666Z,83.73
2022-09-15T00:49:42.758Z,82.38
2022-09-15T00:52:18.872Z,81.76
2022-09-15T00:54:56.032Z,82.62
2022-09-15T00:57:51.927Z,82.82
2022-09-15T01:00:20.679Z,81.87
2022-09-15T01:02:48.428Z,81.71
2022-09-15T01:05:18.379Z,81.49
2022-09-15T01:07:50.221Z,83.00
2022-09-15T01:10:34.096Z,82.16
2022-09-15T01:13:07.016Z,81.31
2022-09-15T01:16:06.593Z,82.08
2022-09-15T01:18:48.598Z,81.48
2022-09-15T01:21:39.514Z,82.12
2022-09-15T01:24:17.042Z,81.17
2022-09-15T01:27:30.883Z,81.85
2022-09-15T01:30:08.587Z,82.34
2022-09-15T01:33:05.785Z,80.99
2022-09-15T01:35:33.821Z,81.75
2022-09-15T01:38:00.473Z,81.17
2022-09-15T01:40:29.911Z,81.56
2022-09-15T01:42:57.532Z,81.85
2022-09-15T01:45:28.173Z,82.68
2022-09-15T01:47:57.277Z,83.12
2022-09-15T01:50:32.879Z,82.50
2022-09-15T01:53:03.290Z,83.35
2022-09-15T01:56:05.190Z,82.74
2022-09-15T01:58:33.135Z,81.17
2022-09-15T02:01:17.306Z,81.36
2022-09-15T02:03:56.284Z,81.55
2022-09-15T02:06:33.801Z,81.73
2022-09-15T02:09:05.061Z,80.73
2022-09-15T02:11:32.842Z,81.28
2022-09-15T02:14:11.417Z,81.19
2022-09-15T02:16:40.425Z,80.97
2022-09-15T02:19:17.459Z,81.09
2022-09-15T02:21:53.352Z,81.48
2022-09-15T02:24:27.950Z,81.50
2022-09-15T02:26:57.515Z,81.16
2022-09-15T02:29:26.300Z,79.58
2022-09-15T02:31:56.217Z,80.00
2022-09-15T02:34:27.398Z,80.72
2022-09-15T02:36:54.023Z,79.76
2022-09-15T02:39:23.766Z,80.29
2022-09-15T02:41:51.788Z,80.39
2022-09-15T02:44:18.505Z,80.00
2022-09-15T02:46:45.301Z,79.68
2022-09-15T02:49:12.039Z,78.85
2022-09-15T02:51:38.814Z,79.09
2022-09-15T02:54:05.709Z,78.75
2022-09-15T02:56:32.448Z,78.43
2022-09-15T02:58:59.108Z,78.45
2022-09-15T03:01:32.268Z,79.25
2022-09-15T03:03:59.241Z,78.27
2022-09-15T03:06:29.192Z,77.54
2022-09-15T03:08:58.405Z,78.11
2022-09-15T03:11:26.877Z,78.47
2022-09-15T03:13:55.476Z,77.27
2022-09-15T03:16:22.333Z,78.32
2022-09-15T03:18:49.344Z,77.67
2022-09-15T03:21:19.005Z,78.46
2022-09-15T03:23:45.968Z,78.91
2022-09-15T03:26:13.139Z,78.46
2022-09-15T03:28:40.356Z,79.40
2022-09-15T03:31:08.768Z,78.51
2022-09-15T03:33:36.208Z,78.76
2022-09-15T03:36:03.130Z,78.57
2022-09-15T03:38:30.154Z,79.01
2022-09-15T03:41:08.381Z,77.85
2022-09-15T03:43:36.570Z,78.64
2022-09-15T03:46:05.238Z,78.61
2022-09-15T03:48:35.039Z,79.00
2022-09-15T03:51:03.485Z,77.84
2022-09-15T03:53:34.329Z,78.49
2022-09-15T03:56:17.501Z,78.39
2022-09-15T03:58:44.381Z,78.50
2022-09-15T04:01:11.259Z,78.54
2022-09-15T04:03:44.214Z,78.39
2022-09-15T04:06:13.467Z,78.06
2022-09-15T04:08:40.196Z,77.76
2022-09-15T04:11:07.977Z,78.11
2022-09-15T04:13:35.709Z,77.40
2022-09-15T04:16:04.628Z,77.84
2022-09-15T04:18:33.223Z,78.05
2022-09-15T04:21:08.550Z,77.74
2022-09-15T04:23:35.396Z,77.81
2022-09-15T04:26:04.974Z,77.78
2022-09-15T04:28:38.332Z,77.39
2022-09-15T04:31:05.324Z,77.76
2022-09-15T04:33:32.590Z,77.28
2022-09-15T04:36:04.918Z,78.06
2022-09-15T04:38:31.970Z,77.65
2022-09-15T04:40:58.912Z,77.94
2022-09-15T04:43:26.459Z,77.19
2022-09-15T04:48:21.080Z,76.39
2022-09-15T04:50:47.911Z,76.86
2022-09-15T04:53:15.443Z,76.97
2022-09-15T04:55:42.515Z,77.19
2022-09-15T04:58:09.449Z,77.36
2022-09-15T05:00:45.859Z,76.67
2022-09-15T05:03:14.164Z,76.60
2022-09-15T05:05:41.380Z,77.21
2022-09-15T05:08:08.432Z,76.02
2022-09-15T05:10:35.418Z,76.63
2022-09-15T05:13:02.203Z,77.15
2022-09-15T05:15:28.915Z,76.24
2022-09-15T05:17:55.708Z,76.70
2022-09-15T05:20:22.673Z,75.96
2022-09-15T05:22:49.813Z,76.32
2022-09-15T05:25:16.727Z,77.05
2022-09-15T05:27:43.813Z,75.87
2022-09-15T05:30:36.034Z,75.93
2022-09-15T05:32:57.626Z,76.35
2022-09-15T05:35:24.300Z,76.36
2022-09-15T05:37:51.073Z,75.48
2022-09-15T05:40:20.731Z,76.34
2022-09-15T05:42:47.511Z,75.80
2022-09-15T05:45:14.230Z,76.71
2022-09-15T05:47:41.195Z,75.91
2022-09-15T05:50:08.160Z,76.11
2022-09-15T05:52:35.834Z,75.68
2022-09-15T05:55:02.582Z,75.99
2022-09-15T05:57:29.364Z,76.24
2022-09-15T05:59:56.045Z,76.21
2022-09-15T06:02:23.081Z,75.81
2022-09-15T06:04:49.790Z,75.70
2022-09-15T06:07:16.787Z,76.79
2022-09-15T06:09:44.033Z,75.64
2022-09-15T06:12:10.798Z,77.15
2022-09-15T06:14:37.519Z,77.05
2022-09-15T06:17:04.308Z,76.25
2022-09-15T06:19:31.012Z,75.89
2022-09-15T06:21:59.024Z,75.75
2022-09-15T06:24:25.717Z,76.42
2022-09-15T06:26:52.509Z,76.24
2022-09-15T06:29:19.307Z,76.65
2022-09-15T06:31:46.122Z,76.20
2022-09-15T06:34:12.853Z,76.57
2022-09-15T06:36:39.585Z,77.46
2022-09-15T06:39:06.508Z,77.02
2022-09-15T06:41:52.842Z,76.89
2022-09-15T06:44:20.463Z,77.28
2022-09-15T06:46:47.636Z,77.01
2022-09-15T06:49:14.467Z,77.61
2022-09-15T06:51:41.775Z,77.67
2022-09-15T06:54:08.541Z,77.07
2022-09-15T06:56:38.031Z,77.29
2022-09-15T06:59:05.343Z,76.99
2022-09-15T07:01:32.742Z,75.82
2022-09-15T07:04:01.068Z,75.41
2022-09-15T07:06:29.093Z,74.88
2022-09-15T07:08:56.775Z,74.13
2022-09-15T07:11:23.486Z,73.94
2022-09-15T07:13:51.130Z,74.39
2022-09-15T07:16:19.090Z,73.84
2022-09-15T07:18:46.637Z,74.70
2022-09-15T07:21:19.881Z,74.73
2022-09-15T07:23:47.334Z,75.27
2022-09-15T07:26:16.986Z,74.53
2022-09-15T07:28:45.833Z,74.67
2022-09-15T07:31:15.294Z,74.50
2022-09-15T07:33:42.340Z,74.59
2022-09-15T07:36:10.146Z,74.40
2022-09-15T07:38:40.574Z,74.69
2022-09-15T07:41:16.011Z,74.51
2022-09-15T07:43:53.717Z,73.67
2022-09-15T07:46:21.939Z,74.01
2022-09-15T07:48:50.869Z,72.95
2022-09-15T07:51:18.145Z,73.12
2022-09-15T07:53:46.957Z,73.18
2022-09-15T07:56:14.238Z,73.30
2022-09-15T07:58:40.992Z,72.64
2022-09-15T08:01:11.573Z,72.68
2022-09-15T08:03:42.887Z,72.28
2022-09-15T08:06:10.921Z,72.21
2022-09-15T08:08:41.509Z,71.86
2022-09-15T08:11:09.776Z,71.12
2022-09-15T08:13:37.029Z,71.60
2022-09-15T08:16:14.996Z,71.31
2022-09-15T08:18:43.220Z,70.82
2022-09-15T08:21:20.388Z,71.62
2022-09-15T08:23:54.125Z,72.25
2022-09-15T08:26:20.974Z,71.71
2022-09-15T08:28:48.371Z,70.93
2022-09-15T08:31:15.681Z,70.98
2022-09-15T08:33:45.886Z,70.11
2022-09-15T08:36:13.391Z,70.91
2022-09-15T08:38:41.519Z,70.59
2022-09-15T08:41:16.049Z,69.95
2022-09-15T08:43:48.473Z,70.05
2022-09-15T08:46:19.301Z,69.79
2022-09-15T08:48:54.432Z,70.42
2022-09-15T08:51:27.016Z,69.94
2022-09-15T08:54:00.566Z,70.21
2022-09-15T08:56:29.056Z,70.35
2022-09-15T08:58:55.816Z,69.73
2022-09-15T09:02:00.149Z,70.23
2022-09-15T09:04:33.020Z,70.87
2022-09-15T09:07:16.399Z,69.95
2022-09-15T09:09:52.977Z,69.70
2022-09-15T09:12:41.562Z,69.69
2022-09-15T09:15:16.181Z,70.50
2022-09-15T09:18:17.353Z,70.15
2022-09-15T09:21:19.269Z,69.69
2022-09-15T09:23:58.413Z,69.93
2022-09-15T09:26:25.873Z,68.84
2022-09-15T09:29:00.290Z,68.48
2022-09-15T09:31:28.391Z,67.65
2022-09-15T09:34:27.823Z,68.31
2022-09-15T09:36:58.090Z,69.83
2022-09-15T09:39:25.669Z,70.62
2022-09-15T09:41:52.393Z,71.05
2022-09-15T09:44:19.747Z,71.74
2022-09-15T09:46:47.447Z,70.67
2022-09-15T09:49:23.210Z,70.95
2022-09-15T09:51:59.925Z,71.75
2022-09-15T09:54:31.207Z,71.42
2022-09-15T09:57:21.845Z,72.00
2022-09-15T09:59:50.155Z,71.97
2022-09-15T10:02:19.594Z,71.36
2022-09-15T10:04:54.634Z,72.14
2022-09-15T10:10:21.577Z,72.03
2022-09-15T10:12:49.188Z,72.13
2022-09-15T10:15:42.120Z,74.18
2022-09-15T10:18:38.190Z,75.93
2022-09-15T10:21:06.220Z,75.21
2022-09-15T10:23:34.300Z,76.69
2022-09-15T10:26:16.300Z,76.24
2022-09-15T10:28:43.850Z,78.44
2022-09-15T10:31:13.541Z,78.42
2022-09-15T10:33:50.714Z,79.12
2022-09-15T10:36:21.809Z,78.71
2022-09-15T10:38:48.965Z,79.41
2022-09-15T10:41:32.343Z,79.34
2022-09-15T10:44:07.284Z,79.46
2022-09-15T10:47:12.156Z,79.07
2022-09-15T10:49:44.937Z,77.90
2022-09-15T10:52:29.754Z,77.31
2022-09-15T10:55:05.224Z,75.71
2022-09-15T10:57:47.424Z,76.65
2022-09-15T11:00:21.063Z,75.98
2022-09-15T11:03:14.788Z,76.00
2022-09-15T11:05:49.409Z,76.60
2022-09-15T11:08:34.649Z,76.01
2022-09-15T11:11:20.280Z,75.26
2022-09-15T11:14:17.926Z,74.20
2022-09-15T11:16:47.618Z,71.80
2022-09-15T11:19:42.893Z,71.43
2022-09-15T11:22:42.120Z,70.51
2022-09-15T11:25:17.408Z,69.21
2022-09-15T11:27:51.719Z,69.03
2022-09-15T11:30:20.493Z,66.79
2022-09-15T11:33:07.205Z,64.22
2022-09-15T11:35:42.192Z,65.60
2022-09-15T11:38:14.255Z,64.66
2022-09-15T11:41:10.483Z,64.45
2022-09-15T11:43:46.133Z,66.77
2022-09-15T11:46:21.768Z,68.20
2022-09-15T11:49:20.085Z,70.10
2022-09-15T11:51:54.903Z,70.92
2022-09-15T11:54:31.342Z,71.28
2022-09-15T11:56:59.030Z,73.80
2022-09-15T11:59:32.654Z,76.28
2022-09-15T12:02:26.286Z,79.67
2022-09-15T12:05:06.839Z,82.90
2022-09-15T12:07:39.637Z,79.59
2022-09-15T12:10:20.332Z,78.22
2022-09-15T12:12:47.935Z,80.57
2022-09-15T12:15:17.552Z,76.99
2022-09-15T12:18:37.175Z,76.69
2022-09-15T12:21:37.673Z,75.30
2022-09-15T12:24:14.674Z,73.22
2022-09-15T12:26:43.366Z,74.34
2022-09-15T12:29:22.556Z,71.29
2022-09-15T12:32:17.956Z,71.77
2022-09-15T12:35:00.864Z,70.32
2022-09-15T12:37:46.964Z,70.79
2022-09-15T12:40:41.877Z,68.57
2022-09-15T12:43:12.536Z,66.87
2022-09-15T12:45:41.489Z,68.61
2022-09-15T12:48:15.558Z,65.04
2022-09-15T12:50:43.365Z,65.76
2022-09-15T12:53:21.218Z,65.09
2022-09-15T12:55:55.809Z,61.20
2022-09-15T12:58:30.409Z,61.33
2022-09-15T13:01:35.354Z,61.45
2022-09-15T13:04:02.151Z,61.70
2022-09-15T13:06:30.041Z,60.49
2022-09-15T13:09:05.939Z,55.31
2022-09-15T13:11:38.583Z,57.39
2022-09-15T13:14:08.331Z,61.29
2022-09-15T13:16:58.373Z,69.97
2022-09-15T13:19:41.021Z,76.26
2022-09-15T13:22:27.203Z,75.94
2022-09-15T13:25:14.737Z,74.85
2022-09-15T13:28:09.382Z,74.50
2022-09-15T13:30:55.018Z,74.54
2022-09-15T13:40:49.081Z,65.40
2022-09-15T13:43:37.447Z,62.63
2022-09-15T13:46:41.431Z,63.39
2022-09-15T13:49:38.498Z,65.99
2022-09-15T13:52:23.484Z,63.73
2022-09-15T13:55:13.611Z,65.76
2022-09-15T14:00:33.730Z,68.91
2022-09-15T14:03:03.471Z,68.09
2022-09-15T14:05:31.704Z,66.65
2022-09-15T14:08:02.805Z,69.55
2022-09-15T14:10:32.398Z,70.95
2022-09-15T14:13:00.798Z,66.57
2022-09-15T14:15:28.595Z,68.47
2022-09-15T14:17:56.001Z,65.71
2022-09-15T14:20:29.897Z,66.73
2022-09-15T14:22:57.655Z,66.39
2022-09-15T14:25:24.556Z,67.81
2022-09-15T14:27:54.093Z,67.80
2022-09-15T14:30:24.092Z,67.07
2022-09-15T14:32:53.782Z,68.54
2022-09-15T14:35:26.332Z,69.29
2022-09-15T14:37:58.421Z,68.24
2022-09-15T14:40:37.617Z,66.57
2022-09-15T14:43:24.077Z,66.29
2022-09-15T14:45:54.789Z,66.40
2022-09-15T14:48:28.041Z,67.20
2022-09-15T14:51:01.968Z,66.31
2022-09-15T14:53:31.035Z,68.84
2022-09-15T14:56:08.234Z,70.80
2022-09-15T14:58:52.003Z,70.97
2022-09-15T15:01:24.542Z,71.70
2022-09-15T15:04:00.629Z,73.84
2022-09-15T15:06:35.400Z,73.50
2022-09-15T15:09:22.432Z,74.85
2022-09-15T15:11:53.137Z,76.41
2022-09-15T15:14:20.285Z,77.11
2022-09-15T15:16:58.460Z,75.19
2022-09-15T15:19:46.651Z,73.93
2022-09-15T15:22:13.653Z,74.68
2022-09-15T15:24:43.362Z,73.65
2022-09-15T15:27:34.616Z,74.87
2022-09-15T15:30:19.612Z,73.71
2022-09-15T15:32:46.505Z,73.93
2022-09-15T15:35:15.783Z,74.56
2022-09-15T15:37:43.186Z,76.13
2022-09-15T15:40:20.470Z,76.08
2022-09-15T15:42:59.375Z,76.10
2022-09-15T15:45:30.530Z,76.81
2022-09-15T15:47:57.691Z,77.36
2022-09-15T15:50:26.277Z,75.75
2022-09-15T15:52:53.678Z,75.29
2022-09-15T15:55:26.802Z,76.40
2022-09-15T15:57:54.811Z,76.90
2022-09-15T16:00:22.937Z,75.86
2022-09-15T16:02:51.106Z,74.91
2022-09-15T16:05:19.085Z,73.43
2022-09-15T16:07:46.632Z,67.72
2022-09-15T16:10:18.850Z,68.27
2022-09-15T16:12:45.633Z,70.90
2022-09-15T16:15:17.809Z,68.36
2022-09-15T16:17:46.843Z,70.57
2022-09-15T16:20:16.206Z,70.59
2022-09-15T16:22:43.376Z,72.22
2022-09-15T16:25:14.936Z,72.28
2022-09-15T16:27:41.789Z,72.64
2022-09-15T16:30:12.129Z,72.02
2022-09-15T16:32:40.243Z,72.27
2022-09-15T16:35:22.136Z,71.92
2022-09-15T16:37:49.035Z,72.61
2022-09-15T16:40:18.049Z,73.32
2022-09-15T16:42:45.185Z,71.85
2022-09-15T16:45:21.798Z,70.45
2022-09-15T16:47:48.845Z,69.67
2022-09-15T16:50:15.738Z,71.83
2022-09-15T16:52:42.932Z,70.38
2022-09-15T16:55:24.001Z,70.77
2022-09-15T16:57:50.823Z,70.52
2022-09-15T17:00:17.618Z,71.08
2022-09-15T17:02:44.574Z,71.36
2022-09-15T17:05:21.456Z,71.87
2022-09-15T17:07:48.307Z,71.66
2022-09-15T17:10:15.177Z,70.25
2022-09-15T17:12:42.196Z,71.01
2022-09-15T17:15:19.785Z,72.31
2022-09-15T17:17:47.029Z,72.86
2022-09-15T17:20:14.183Z,73.21
2022-09-15T17:22:41.592Z,74.55
2022-09-15T17:25:25.277Z,74.36
2022-09-15T17:27:52.804Z,74.62
2022-09-15T17:30:21.064Z,73.90
2022-09-15T17:32:49.621Z,73.61
2022-09-15T17:35:25.038Z,72.73
2022-09-15T17:37:52.557Z,73.51
2022-09-15T17:40:20.779Z,75.36
2022-09-15T17:42:48.733Z,75.92
2022-09-15T17:45:21.780Z,75.19
2022-09-15T17:47:50.747Z,77.32
2022-09-15T17:50:33.743Z,77.22
2022-09-15T17:53:00.854Z,76.45
2022-09-15T17:55:29.902Z,77.65
2022-09-15T17:57:58.585Z,78.79
2022-09-15T18:00:26.710Z,78.99
2022-09-15T18:02:58.795Z,78.24
2022-09-15T18:05:31.207Z,80.25
2022-09-15T18:08:00.165Z,80.07
2022-09-15T18:10:28.258Z,79.19
2022-09-15T18:12:55.792Z,82.58
2022-09-15T18:15:29.541Z,81.79
2022-09-15T18:17:59.616Z,82.06
2022-09-15T18:20:28.811Z,84.73
2022-09-15T18:22:56.897Z,85.85
2022-09-15T18:25:25.608Z,84.24
2022-09-15T18:27:52.501Z,83.14
2022-09-15T18:30:20.604Z,84.65
2022-09-15T18:32:47.907Z,83.82
2022-09-15T18:35:18.640Z,84.12
2022-09-15T18:37:47.036Z,83.56
2022-09-15T18:40:17.091Z,81.41
2022-09-15T18:42:44.418Z,82.08
2022-09-15T18:45:13.677Z,84.16
2022-09-15T18:47:42.462Z,82.75
2022-09-15T20:56:35.565Z,81.03
2022-09-15T20:59:03.411Z,82.05
2022-09-15T21:01:34.479Z,81.72
2022-09-15T21:04:01.749Z,81.53
2022-09-15T21:06:28.992Z,81.12
2022-09-15T21:08:56.746Z,81.47
2022-09-15T21:11:24.863Z,80.97
2022-09-15T21:13:51.690Z,81.72
2022-09-15T21:16:20.919Z,81.61
2022-09-15T21:18:48.462Z,81.93
2022-09-15T21:21:33.881Z,81.16
2022-09-15T21:24:06.155Z,82.63
2022-09-15T21:26:58.230Z,81.32
2022-09-15T21:29:25.391Z,80.73
2022-09-15T21:31:52.804Z,81.77
2022-09-15T21:34:20.310Z,80.83
2022-09-15T21:36:47.183Z,82.95
2022-09-15T21:39:13.973Z,82.29
2022-09-15T21:41:40.768Z,83.54
2022-09-15T21:44:07.575Z,82.64
2022-09-15T21:46:34.305Z,83.02
2022-09-15T21:49:01.153Z,84.61
2022-09-15T21:51:29.566Z,83.66
2022-09-15T21:53:57.998Z,84.03
2022-09-15T21:56:26.459Z,84.93
2022-09-15T21:58:54.294Z,83.88
2022-09-15T22:01:29.914Z,84.03
2022-09-15T22:03:58.503Z,83.24
2022-09-15T22:06:27.773Z,82.53
2022-09-15T22:08:55.169Z,82.62
2022-09-15T22:11:22.894Z,84.49
2022-09-15T22:13:49.931Z,83.99
2022-09-15T22:16:18.884Z,85.26
2022-09-15T22:18:46.227Z,84.70
2022-09-15T22:21:16.857Z,82.72
2022-09-15T22:23:45.002Z,84.45
2022-09-15T22:26:20.118Z,83.77
2022-09-15T22:28:47.329Z,83.55
2022-09-15T22:31:15.828Z,83.85
2022-09-15T22:33:43.170Z,83.18
2022-09-15T22:36:11.319Z,82.50
2022-09-15T22:38:38.702Z,81.49
2022-09-15T22:41:07.519Z,81.49
2022-09-15T22:43:34.386Z,83.11
2022-09-15T22:46:01.654Z,82.85
2022-09-15T22:48:28.906Z,81.83
2022-09-15T22:50:55.835Z,82.19
2022-09-15T22:53:23.531Z,82.35
2022-09-15T22:55:51.131Z,83.22
2022-09-15T22:58:17.911Z,82.72
2022-09-15T23:00:44.981Z,82.92
2022-09-15T23:03:12.326Z,82.88
2022-09-15T23:05:39.096Z,83.49
2022-09-15T23:08:06.126Z,83.32
2022-09-15T23:10:33.361Z,83.71
2022-09-15T23:13:00.591Z,83.81
2022-09-15T23:15:28.807Z,84.11
2022-09-15T23:17:55.643Z,82.85
2022-09-15T23:20:22.493Z,82.31
2022-09-15T23:22:49.272Z,81.87
2022-09-15T23:25:17.309Z,82.29
2022-09-15T23:27:44.109Z,82.26
2022-09-15T23:30:11.594Z,80.60
2022-09-15T23:32:38.368Z,80.64
2022-09-15T23:35:05.697Z,82.27
2022-09-15T23:37:32.460Z,82.34
2022-09-15T23:39:59.242Z,81.35
2022-09-15T23:42:25.976Z,81.74
2022-09-15T23:44:52.664Z,82.52
2022-09-15T23:47:19.437Z,83.41
2022-09-15T23:49:46.139Z,82.57
2022-09-15T23:52:12.874Z,83.61
2022-09-15T23:54:39.558Z,83.46
2022-09-15T23:57:06.431Z,84.16
2022-09-15T23:59:33.161Z,83.57
